Time;durP1;ratioP1;P1;durP2;ratioP2;P2;SDS_P1;SDS_P2;PMS_P1;PMS_P2;Temp;Humidity;BMP_temperature;BMP_pressure;BME280_temperature;BME280_humidity;BME280_pressure;Samples;Min_cycle;Max_cycle;Signal;HPM_P1;HPM_P2
2022/05/12 00:01:04;;;;;;;7.18;3.88;;;;;;;10.16;98.43;95464.91;4846316;29;20050;-68
2022/05/12 00:03:31;;;;;;;6.03;3.80;;;;;;;10.08;99.51;95469.34;4829823;29;20046;-67
2022/05/12 00:05:57;;;;;;;5.80;4.15;;;;;;;9.93;99.46;95461.03;4831841;29;20133;-68
2022/05/12 00:08:24;;;;;;;6.88;3.90;;;;;;;9.77;99.84;95465.72;4830447;29;20045;-68
2022/05/12 00:10:51;;;;;;;8.55;4.35;;;;;;;9.67;100.00;95462.81;4831033;29;20500;-68
2022/05/12 00:13:18;;;;;;;17.10;4.50;;;;;;;9.59;100.00;95465.66;4829886;29;20079;-69
2022/05/12 00:15:45;;;;;;;6.93;4.05;;;;;;;9.62;100.00;95460.03;4830410;29;20473;-68
2022/05/12 00:18:12;;;;;;;7.95;4.35;;;;;;;9.59;100.00;95464.84;4830866;29;20045;-68
2022/05/12 00:20:41;;;;;;;10.25;4.55;;;;;;;9.56;100.00;95466.06;4830627;29;20045;-68
2022/05/12 00:23:11;;;;;;;8.65;4.40;;;;;;;9.55;100.00;95454.88;4832001;29;20052;-69
2022/05/12 00:25:40;;;;;;;6.90;4.63;;;;;;;9.58;100.00;95458.88;4831137;29;20069;-67
2022/05/12 00:28:07;;;;;;;11.18;5.72;;;;;;;9.63;100.00;95461.63;4830281;29;20110;-68
2022/05/12 00:30:35;;;;;;;9.00;4.50;;;;;;;9.60;100.00;95449.06;4830548;29;20068;-68
2022/05/12 00:33:02;;;;;;;9.13;4.75;;;;;;;9.58;100.00;95448.47;4831068;29;20053;-69
2022/05/12 00:35:29;;;;;;;10.30;4.93;;;;;;;9.55;100.00;95454.88;4829570;29;20046;-68
2022/05/12 00:37:56;;;;;;;9.27;5.85;;;;;;;9.49;100.00;95449.69;4828909;29;20058;-68
2022/05/12 00:40:23;;;;;;;8.80;4.95;;;;;;;9.35;100.00;95441.97;4830201;29;20060;-68
2022/05/12 00:43:03;;;;;;;8.05;4.78;;;;;;;9.36;100.00;95451.38;4830091;29;20045;-69
2022/05/12 00:45:32;;;;;;;11.00;4.28;;;;;;;9.35;100.00;95454.97;4828735;29;20072;-68
2022/05/12 00:47:59;;;;;;;13.82;5.65;;;;;;;9.33;100.00;95457.00;4829911;29;20093;-68
2022/05/12 00:50:34;;;;;;;7.22;4.72;;;;;;;9.31;100.00;95452.97;4830716;29;20049;-68
2022/05/12 00:53:03;;;;;;;6.75;4.25;;;;;;;9.31;100.00;95461.59;4829500;29;20050;-69
2022/05/12 00:55:35;;;;;;;10.60;4.82;;;;;;;9.30;100.00;95457.41;4830957;29;20068;-68
2022/05/12 00:58:08;;;;;;;7.72;4.35;;;;;;;9.20;100.00;95446.66;4828288;29;20601;-69
2022/05/12 01:00:36;;;;;;;6.95;4.43;;;;;;;9.14;100.00;95450.06;4830200;29;20436;-69
2022/05/12 01:03:10;;;;;;;8.23;4.75;;;;;;;9.09;100.00;95439.50;4828810;29;20535;-68
2022/05/12 01:05:38;;;;;;;9.25;5.07;;;;;;;9.17;100.00;95457.47;4831466;29;20073;-68
2022/05/12 01:08:05;;;;;;;9.48;5.50;;;;;;;9.03;100.00;95453.31;4829337;29;20820;-68
2022/05/12 01:10:32;;;;;;;7.88;4.70;;;;;;;8.97;100.00;95463.53;4830753;29;20042;-69
2022/05/12 01:12:59;;;;;;;8.95;5.00;;;;;;;8.83;100.00;95455.97;4828942;29;20061;-68
2022/05/12 01:15:26;;;;;;;10.65;4.80;;;;;;;8.79;100.00;95460.78;4829709;29;20704;-68
2022/05/12 01:18:17;;;;;;;6.18;4.53;;;;;;;8.85;100.00;95469.56;4828044;29;20046;-68
2022/05/12 01:20:46;;;;;;;6.47;4.22;;;;;;;8.78;100.00;95461.78;4828080;29;20073;-68
2022/05/12 01:23:25;;;;;;;13.52;4.50;;;;;;;8.89;100.00;95466.34;4843767;29;20046;-69
2022/05/12 01:26:02;;;;;;;7.57;4.85;;;;;;;8.77;100.00;95460.19;4828629;29;20041;-68
2022/05/12 01:28:30;;;;;;;11.35;4.93;;;;;;;8.74;100.00;95470.97;4828600;29;20480;-69
2022/05/12 01:30:58;;;;;;;12.27;4.82;;;;;;;8.73;100.00;95477.16;4829266;29;20054;-68
2022/05/12 01:33:26;;;;;;;11.30;5.90;;;;;;;8.72;100.00;95471.19;4830261;29;20046;-68
2022/05/12 01:35:53;;;;;;;14.30;5.43;;;;;;;8.72;100.00;95465.19;4829086;29;20046;-69
2022/05/12 01:38:20;;;;;;;8.25;5.25;;;;;;;8.60;100.00;95463.19;4826832;29;20049;-68
2022/05/12 01:40:47;;;;;;;10.85;5.60;;;;;;;8.61;100.00;95472.59;4830060;29;20082;-68
2022/05/12 01:43:15;;;;;;;15.90;5.95;;;;;;;8.64;100.00;95478.38;4828569;29;20045;-68
2022/05/12 01:45:42;;;;;;;7.53;4.57;;;;;;;8.61;100.00;95485.59;4827294;29;20049;-69
2022/05/12 01:48:12;;;;;;;6.88;4.60;;;;;;;8.65;100.00;95477.41;4830545;29;20467;-69
2022/05/12 01:50:45;;;;;;;8.63;4.45;;;;;;;8.72;100.00;95480.78;4828034;29;21644;-68
2022/05/12 01:53:15;;;;;;;6.43;3.90;;;;;;;8.61;100.00;95467.41;4830665;29;20037;-68
2022/05/12 01:55:43;;;;;;;5.68;4.15;;;;;;;8.75;100.00;95491.56;4842155;29;20110;-69
2022/05/12 01:58:10;;;;;;;7.00;4.10;;;;;;;8.73;100.00;95487.56;4830800;29;20054;-68
2022/05/12 02:00:38;;;;;;;12.25;4.45;;;;;;;8.73;100.00;95488.38;4828463;29;20074;-68
2022/05/12 02:03:05;;;;;;;5.60;3.90;;;;;;;8.69;100.00;95491.56;4829489;29;20060;-68
2022/05/12 02:05:35;;;;;;;8.27;4.30;;;;;;;8.55;100.00;95483.00;4828490;29;20802;-68
2022/05/12 02:08:03;;;;;;;8.23;4.72;;;;;;;8.46;100.00;95487.59;4829092;29;20050;-68
2022/05/12 02:10:33;;;;;;;10.02;4.50;;;;;;;8.38;100.00;95485.97;4829766;29;20061;-68
2022/05/12 02:13:00;;;;;;;6.38;4.15;;;;;;;8.23;100.00;95488.78;4829984;29;20074;-69
2022/05/12 02:15:27;;;;;;;9.05;4.13;;;;;;;8.15;100.00;95491.56;4830591;29;20110;-68
2022/05/12 02:17:54;;;;;;;9.73;4.63;;;;;;;8.06;100.00;95492.75;4829786;29;20038;-69
2022/05/12 02:20:21;;;;;;;6.97;4.30;;;;;;;8.02;100.00;95492.34;4833475;29;20053;-69
2022/05/12 02:22:49;;;;;;;6.68;3.95;;;;;;;7.99;100.00;95497.94;4831108;29;20102;-68
2022/05/12 02:25:17;;;;;;;6.15;4.22;;;;;;;7.95;100.00;95490.75;4833772;29;20050;-68
2022/05/12 02:27:47;;;;;;;5.75;4.05;;;;;;;7.92;100.00;95485.94;4831595;29;20054;-68
2022/05/12 02:30:18;;;;;;;9.98;5.00;;;;;;;8.00;100.00;95493.56;4832919;29;20106;-69
2022/05/12 02:32:46;;;;;;;7.00;4.00;;;;;;;7.99;100.00;95497.94;4831566;29;20046;-69
2022/05/12 02:35:13;;;;;;;7.32;4.53;;;;;;;7.98;100.00;95495.56;4831901;29;20053;-69
2022/05/12 02:37:40;;;;;;;9.75;3.92;;;;;;;7.87;100.00;95503.91;4831952;29;20057;-68
2022/05/12 02:40:11;;;;;;;7.65;4.40;;;;;;;7.85;100.00;95496.34;4831318;29;20050;-68
2022/05/12 02:42:38;;;;;;;10.88;4.70;;;;;;;7.84;100.00;95485.16;4831907;29;20069;-69
2022/05/12 02:45:06;;;;;;;7.63;4.20;;;;;;;7.77;100.00;95499.88;4833665;29;20042;-68
2022/05/12 02:47:33;;;;;;;8.02;4.35;;;;;;;7.82;100.00;95497.50;4832461;29;20068;-68
2022/05/12 02:50:00;;;;;;;6.90;4.28;;;;;;;7.84;100.00;95490.31;4832732;29;20080;-68
2022/05/12 02:52:27;;;;;;;8.90;4.78;;;;;;;7.90;100.00;95485.34;4863495;29;20054;-68
2022/05/12 02:54:53;;;;;;;11.90;4.38;;;;;;;7.88;100.00;95490.72;4832115;29;20046;-68
2022/05/12 02:57:21;;;;;;;10.07;3.75;;;;;;;7.82;100.00;95502.69;4833389;29;20045;-68
2022/05/12 02:59:48;;;;;;;5.55;4.03;;;;;;;7.74;100.00;95489.94;4832789;29;20041;-68
2022/05/12 03:02:16;;;;;;;6.30;4.50;;;;;;;7.81;100.00;95506.31;4833859;29;20106;-68
2022/05/12 03:04:43;;;;;;;8.50;3.78;;;;;;;7.83;100.00;95501.72;4832946;29;20061;-68
2022/05/12 03:07:10;;;;;;;6.43;3.53;;;;;;;7.89;100.00;95502.72;4833451;29;20046;-68
2022/05/12 03:09:37;;;;;;;6.43;4.45;;;;;;;7.89;100.00;95499.34;4832592;29;20046;-69
2022/05/12 03:12:05;;;;;;;12.00;4.68;;;;;;;7.85;100.00;95507.50;4833528;29;20046;-68
2022/05/12 03:14:32;;;;;;;7.95;4.43;;;;;;;7.84;100.00;95495.50;4832447;29;20050;-68
2022/05/12 03:16:59;;;;;;;6.68;3.53;;;;;;;7.81;100.00;95506.31;4832857;29;20609;-69
2022/05/12 03:19:26;;;;;;;6.53;4.22;;;;;;;7.78;100.00;95511.09;4833987;29;20054;-69
2022/05/12 03:21:53;;;;;;;6.63;4.35;;;;;;;7.77;100.00;95505.06;4832584;29;20053;-69
2022/05/12 03:24:20;;;;;;;7.93;5.60;;;;;;;7.72;100.00;95507.47;4834174;29;20144;-67
2022/05/12 03:26:48;;;;;;;5.70;3.70;;;;;;;7.80;100.00;95519.47;4845035;29;20077;-68
2022/05/12 03:29:15;;;;;;;6.28;3.88;;;;;;;7.78;100.00;95519.66;4832548;29;20052;-69
2022/05/12 03:31:42;;;;;;;11.40;3.88;;;;;;;7.82;100.00;95517.47;4831555;29;20057;-69
2022/05/12 03:34:09;;;;;;;5.95;3.60;;;;;;;7.84;100.00;95525.84;4847251;29;20516;-68
2022/05/12 03:36:36;;;;;;;5.60;3.60;;;;;;;7.82;100.00;95520.06;4832790;29;20077;-68
2022/05/12 03:39:03;;;;;;;8.23;5.03;;;;;;;7.88;100.00;95521.84;4832283;29;20064;-69
2022/05/12 03:41:31;;;;;;;6.30;3.88;;;;;;;7.95;100.00;95532.25;4830215;29;20053;-69
2022/05/12 03:46:43;;;;;;;4.80;3.67;;;;;;;8.03;100.00;95534.66;4829765;29;20054;-68
2022/05/12 03:49:10;;;;;;;6.97;3.47;;;;;;;8.08;100.00;95536.66;4830362;29;20534;-69
2022/05/12 03:51:37;;;;;;;6.55;3.80;;;;;;;8.15;100.00;95527.88;4831281;29;20053;-69
2022/05/12 03:54:04;;;;;;;6.47;3.78;;;;;;;8.21;100.00;95537.50;4830884;29;20056;-69
2022/05/12 03:56:32;;;;;;;9.20;4.68;;;;;;;8.19;100.00;95518.72;4829115;29;20482;-68
2022/05/12 03:59:03;;;;;;;9.10;3.72;;;;;;;8.36;100.00;95541.69;4830154;29;20049;-69
2022/05/12 04:01:31;;;;;;;8.98;4.38;;;;;;;8.47;100.00;95546.31;4830375;29;20053;-70
2022/05/12 04:03:58;;;;;;;9.57;4.68;;;;;;;8.53;100.00;95550.69;4830958;29;20052;-69
2022/05/12 04:06:25;;;;;;;7.63;4.13;;;;;;;8.57;100.00;95544.13;4829666;29;20054;-68
2022/05/12 04:08:52;;;;;;;7.88;4.63;;;;;;;8.64;100.00;95535.50;4827832;29;20166;-68
2022/05/12 04:11:19;;;;;;;6.72;4.15;;;;;;;8.84;100.00;95554.50;4830489;29;20417;-68
2022/05/12 04:13:46;;;;;;;6.88;4.43;;;;;;;8.89;100.00;95557.25;4829763;29;20212;-68
2022/05/12 04:16:15;;;;;;;13.30;4.82;;;;;;;8.95;100.00;95553.88;4825841;29;20042;-69
2022/05/12 04:18:42;;;;;;;15.05;5.60;;;;;;;9.16;100.00;95559.81;4827473;29;20054;-69
2022/05/12 04:21:09;;;;;;;21.50;5.82;;;;;;;9.21;100.00;95552.19;4832349;29;20899;-69
2022/05/12 04:23:36;;;;;;;13.77;6.40;;;;;;;9.36;100.00;95565.78;4832195;29;20050;-69
2022/05/12 04:26:02;;;;;;;11.63;6.68;;;;;;;9.23;100.00;95571.00;4828264;29;20481;-69
2022/05/12 04:28:30;;;;;;;7.80;4.45;;;;;;;9.19;100.00;95567.22;4831347;29;20058;-68
2022/05/12 04:30:58;;;;;;;8.82;5.13;;;;;;;9.18;100.00;95553.44;4829984;29;20129;-69
2022/05/12 04:36:10;;;;;;;9.25;5.97;;;;;;;9.38;100.00;95576.75;4836247;29;20053;-69
2022/05/12 04:38:37;;;;;;;9.00;5.32;;;;;;;9.48;100.00;95572.94;4833813;29;20054;-69
2022/05/12 04:41:04;;;;;;;9.80;5.88;;;;;;;9.46;100.00;95559.34;4831680;29;20401;-69
2022/05/12 04:43:31;;;;;;;8.55;5.43;;;;;;;9.61;100.00;95572.06;4829219;29;20046;-69
2022/05/12 04:45:57;;;;;;;11.45;5.53;;;;;;;9.73;100.00;95581.63;4830745;29;20053;-68
2022/05/12 04:48:26;;;;;;;9.05;5.70;;;;;;;9.80;100.00;95580.81;4833730;29;20060;-69
2022/05/12 04:50:54;;;;;;;8.82;5.68;;;;;;;9.91;100.00;95582.75;4829488;29;20190;-66
2022/05/12 04:53:21;;;;;;;9.52;5.28;;;;;;;9.98;100.00;95567.91;4832599;29;20046;-76
2022/05/12 04:55:48;;;;;;;16.58;6.93;;;;;;;9.88;100.00;95531.13;4831642;29;20464;-72
2022/05/12 04:58:14;;;;;;;12.48;5.72;;;;;;;10.32;100.00;95582.34;4827044;29;20053;-66
2022/05/12 05:00:43;;;;;;;13.32;5.55;;;;;;;10.48;100.00;95578.44;4827839;29;20053;-66
2022/05/12 05:03:12;;;;;;;10.75;6.55;;;;;;;10.68;100.00;95577.50;4829128;29;20049;-65
2022/05/12 05:05:46;;;;;;;19.27;6.90;;;;;;;10.80;100.00;95570.56;4859099;29;20057;-65
2022/05/12 05:08:15;;;;;;;11.02;6.25;;;;;;;11.05;100.00;95582.78;4827121;29;20058;-65
2022/05/12 05:10:42;;;;;;;9.35;6.18;;;;;;;11.24;100.00;95581.00;4829324;29;20073;-66
2022/05/12 05:13:09;;;;;;;9.63;5.93;;;;;;;11.43;100.00;95584.41;4827829;29;20042;-66
2022/05/12 05:15:36;;;;;;;9.75;6.32;;;;;;;11.55;100.00;95589.69;4830356;29;20731;-66
2022/05/12 05:18:10;;;;;;;13.77;6.22;;;;;;;11.69;100.00;95587.75;4827825;29;20053;-66
2022/05/12 05:20:38;;;;;;;10.32;6.10;;;;;;;11.81;100.00;95580.75;4829416;29;20524;-65
2022/05/12 05:23:04;;;;;;;9.95;6.07;;;;;;;11.97;100.00;95585.38;4828148;29;20053;-65
2022/05/12 05:25:31;;;;;;;11.18;6.25;;;;;;;12.12;100.00;95586.81;4827879;29;20050;-65
2022/05/12 05:27:59;;;;;;;9.73;6.15;;;;;;;12.23;100.00;95589.47;4828736;29;20046;-64
2022/05/12 05:30:27;;;;;;;9.00;5.22;;;;;;;12.22;100.00;95592.28;4829227;29;20542;-66
2022/05/12 05:32:55;;;;;;;12.93;6.10;;;;;;;12.31;99.39;95584.94;4828585;29;20547;-66
2022/05/12 05:35:22;;;;;;;11.90;6.63;;;;;;;12.43;98.82;95583.97;4826427;29;20042;-66
2022/05/12 05:37:52;;;;;;;12.68;7.28;;;;;;;12.60;99.01;95589.34;4829459;29;20137;-66
2022/05/12 05:40:23;;;;;;;14.05;6.88;;;;;;;12.59;98.62;95586.97;4828138;29;20162;-66
2022/05/12 05:42:50;;;;;;;9.50;6.50;;;;;;;12.71;99.12;95589.56;4828433;29;20057;-66
2022/05/12 05:45:17;;;;;;;12.27;6.55;;;;;;;12.92;97.57;95588.25;4827657;29;20042;-66
2022/05/12 05:47:47;;;;;;;11.15;6.60;;;;;;;13.03;96.68;95595.28;4828492;29;20042;-66
2022/05/12 05:50:18;;;;;;;11.20;5.63;;;;;;;13.18;96.60;95597.44;4827638;29;20044;-66
2022/05/12 05:55:32;;;;;;;9.63;6.25;;;;;;;13.54;95.94;95593.81;4828982;29;20089;-66
2022/05/12 05:58:00;;;;;;;14.27;5.57;;;;;;;13.67;94.49;95597.22;4828553;29;20052;-66
2022/05/12 06:00:28;;;;;;;8.75;5.47;;;;;;;13.80;93.17;95591.69;4827023;29;20061;-66
2022/05/12 06:02:55;;;;;;;12.07;6.20;;;;;;;13.92;93.86;95584.59;4829635;29;20057;-67
2022/05/12 06:05:22;;;;;;;7.55;5.85;;;;;;;14.07;91.63;95591.16;4828221;29;20052;-65
2022/05/12 06:07:49;;;;;;;13.07;6.60;;;;;;;14.21;90.64;95584.59;4827583;29;20949;-65
2022/05/12 06:10:16;;;;;;;14.98;6.75;;;;;;;14.36;90.27;95588.53;4830254;29;20038;-65
2022/05/12 06:12:43;;;;;;;10.43;6.53;;;;;;;14.53;89.93;95589.31;4827784;29;20785;-65
2022/05/12 06:15:12;;;;;;;9.95;6.38;;;;;;;14.69;88.65;95591.22;4829467;29;20551;-65
2022/05/12 06:17:39;;;;;;;10.38;5.82;;;;;;;14.83;87.92;95588.28;4826748;29;20061;-67
2022/05/12 06:20:07;;;;;;;12.27;5.57;;;;;;;14.92;86.64;95592.09;4827661;29;20046;-65
2022/05/12 06:22:34;;;;;;;10.18;6.65;;;;;;;14.99;85.76;95587.47;4826796;29;21492;-65
2022/05/12 06:25:05;;;;;;;9.07;5.53;;;;;;;15.18;86.11;95595.06;4830093;29;20054;-65
2022/05/12 06:27:34;;;;;;;7.63;4.80;;;;;;;15.29;85.36;95592.38;4827422;29;20725;-66
2022/05/12 06:30:02;;;;;;;6.63;4.72;;;;;;;15.41;84.90;95588.84;4828598;29;20579;-65
2022/05/12 06:32:30;;;;;;;11.13;5.60;;;;;;;15.53;83.64;95591.34;4824624;29;20050;-67
2022/05/12 06:34:57;;;;;;;9.77;5.47;;;;;;;15.63;82.76;95594.13;4827522;29;20053;-67
2022/05/12 06:37:24;;;;;;;7.60;5.10;;;;;;;15.75;81.42;95600.06;4824374;29;20078;-67
2022/05/12 06:39:51;;;;;;;9.05;5.15;;;;;;;15.79;80.95;95601.19;4828774;29;20050;-66
2022/05/12 06:42:18;;;;;;;5.63;4.55;;;;;;;15.81;81.11;95601.72;4827145;29;20046;-65
2022/05/12 06:44:45;;;;;;;8.73;5.95;;;;;;;15.91;80.22;95597.63;4825562;29;20057;-65
2022/05/12 06:47:14;;;;;;;7.15;4.95;;;;;;;15.99;78.04;95589.28;4828893;29;20052;-75
2022/05/12 06:49:48;;;;;;;8.18;4.38;;;;;;;16.22;76.84;95599.56;4836294;29;20046;-80
2022/05/12 06:52:15;;;;;;;6.90;4.28;;;;;;;16.23;77.58;95590.59;4849974;29;20046;-79
2022/05/12 06:54:43;;;;;;;11.10;4.72;;;;;;;16.22;76.41;95589.03;4864975;29;20060;-80
2022/05/12 06:57:12;;;;;;;8.75;4.10;;;;;;;16.42;75.98;95590.25;4832429;29;20042;-65
2022/05/12 06:59:40;;;;;;;9.65;4.47;;;;;;;16.49;76.11;95588.22;4827247;29;20137;-64
2022/05/12 07:02:07;;;;;;;6.35;4.35;;;;;;;16.69;75.93;95592.88;4830234;29;20056;-65
2022/05/12 07:04:34;;;;;;;7.38;4.05;;;;;;;16.76;72.52;95585.56;4831569;29;20134;-65
2022/05/12 07:07:02;;;;;;;11.40;5.35;;;;;;;16.85;76.23;95570.13;4829717;29;20588;-64
2022/05/12 07:09:31;;;;;;;7.90;4.53;;;;;;;17.17;74.45;95582.47;4830099;29;20050;-65
2022/05/12 07:11:58;;;;;;;10.23;4.90;;;;;;;17.32;72.42;95590.47;4830668;29;20054;-66
2022/05/12 07:14:25;;;;;;;11.07;4.30;;;;;;;17.17;73.70;95587.72;4830033;29;20042;-66
2022/05/12 07:16:52;;;;;;;12.80;4.90;;;;;;;17.36;72.92;95594.16;4828857;29;20046;-65
2022/05/12 07:19:20;;;;;;;9.00;4.72;;;;;;;17.46;73.68;95580.25;4830548;29;20697;-70
2022/05/12 07:27:19;;;;;;;7.72;4.93;;;;;;;18.04;71.54;95582.91;4828423;29;20050;-65
2022/05/12 07:29:46;;;;;;;7.28;4.63;;;;;;;18.20;70.25;95585.56;4831980;29;20133;-68
2022/05/12 07:32:14;;;;;;;7.40;4.72;;;;;;;18.29;69.37;95587.44;4830299;29;20042;-67
2022/05/12 07:34:41;;;;;;;10.82;5.03;;;;;;;18.47;68.42;95566.88;4831358;29;20162;-67
2022/05/12 07:37:08;;;;;;;12.18;4.95;;;;;;;18.66;66.09;95575.06;4830606;29;20050;-67
2022/05/12 07:39:36;;;;;;;4.85;3.50;;;;;;;18.93;67.42;95568.78;4830485;29;20121;-68
2022/05/12 07:42:04;;;;;;;7.07;4.82;;;;;;;19.26;65.42;95570.81;4829677;29;20296;-68
2022/05/12 07:44:32;;;;;;;8.15;4.75;;;;;;;19.47;63.22;95574.19;4831521;29;20586;-68
2022/05/12 07:47:02;;;;;;;8.90;3.80;;;;;;;19.49;59.35;95577.34;4830305;29;20583;-68
2022/05/12 07:49:32;;;;;;;6.38;3.20;;;;;;;19.52;59.14;95575.22;4830578;29;20073;-68
2022/05/12 07:52:00;;;;;;;3.50;2.90;;;;;;;19.57;57.97;95568.09;4831442;29;20054;-67
2022/05/12 07:54:26;;;;;;;5.13;3.45;;;;;;;19.75;59.01;95568.59;4830228;29;20520;-68
2022/05/12 07:56:54;;;;;;;5.18;4.05;;;;;;;20.00;57.67;95576.38;4830988;29;20057;-68
2022/05/12 07:59:21;;;;;;;5.75;2.78;;;;;;;20.14;52.43;95581.09;4830504;29;20054;-67
2022/05/12 08:01:48;;;;;;;3.85;2.72;;;;;;;20.17;53.49;95575.28;4830816;29;20067;-68
2022/05/12 08:04:15;;;;;;;4.65;2.88;;;;;;;20.43;55.04;95579.31;4829163;29;20042;-67
2022/05/12 08:06:43;;;;;;;4.45;2.85;;;;;;;20.62;55.61;95557.53;4844873;29;20626;-68
2022/05/12 08:09:11;;;;;;;6.20;2.78;;;;;;;20.83;52.43;95567.94;4830264;29;20176;-67
2022/05/12 08:11:39;;;;;;;5.75;3.08;;;;;;;20.79;52.54;95563.19;4830926;29;20046;-67
2022/05/12 08:14:06;;;;;;;5.20;3.22;;;;;;;20.95;52.54;95573.69;4829237;29;20103;-68
2022/05/12 08:16:34;;;;;;;5.60;3.42;;;;;;;20.96;53.24;95564.69;4830225;29;20049;-68
2022/05/12 08:19:01;;;;;;;4.90;3.28;;;;;;;20.94;52.49;95562.31;4829092;29;20590;-68
2022/05/12 08:21:28;;;;;;;4.68;2.90;;;;;;;20.96;52.32;95559.38;4831713;29;20797;-67
2022/05/12 08:23:55;;;;;;;5.78;3.45;;;;;;;21.02;53.63;95563.53;4829127;29;20058;-67
2022/05/12 08:26:22;;;;;;;6.93;4.72;;;;;;;21.20;52.16;95556.75;4829182;29;20053;-68
2022/05/12 08:28:50;;;;;;;11.18;4.57;;;;;;;21.41;52.14;95554.69;4830892;29;20053;-68
2022/05/12 08:31:21;;;;;;;5.45;3.50;;;;;;;21.53;52.17;95563.03;4829333;29;20042;-67
2022/05/12 08:33:48;;;;;;;6.28;3.13;;;;;;;21.71;50.38;95550.13;4830198;29;20586;-74
2022/05/12 08:36:15;;;;;;;3.83;2.85;;;;;;;21.89;49.53;95561.84;4829170;29;20038;-73
2022/05/12 08:38:44;;;;;;;3.70;2.75;;;;;;;22.09;48.37;95542.22;4829052;29;20536;-74
2022/05/12 08:41:42;;;;;;;7.40;3.42;;;;;;;22.05;48.88;95557.13;4821891;29;20958;-73
2022/05/12 08:44:16;;;;;;;4.80;3.20;;;;;;;22.23;50.90;95545.72;4821641;29;20134;-73
2022/05/12 08:46:54;;;;;;;;;;;;;;;22.39;45.99;95556.16;4839997;29;20106;-73
2022/05/12 08:49:32;;;;;;;4.38;2.80;;;;;;;22.14;46.06;95560.72;4825543;29;19939;-73
2022/05/12 08:52:23;;;;;;;3.72;2.88;;;;;;;22.09;45.24;95558.13;4825916;29;20060;-73
2022/05/12 08:54:57;;;;;;;6.10;3.50;;;;;;;22.14;46.66;95560.72;4836005;29;20038;-73
2022/05/12 08:57:29;;;;;;;4.28;2.95;;;;;;;22.08;45.94;95538.00;4825198;29;20618;-72
2022/05/12 08:59:58;;;;;;;9.45;3.15;;;;;;;22.48;45.80;95551.78;4825583;29;20056;-72
2022/05/12 09:02:42;;;;;;;3.72;2.92;;;;;;;22.68;42.21;95554.09;4824748;29;20110;-72
2022/05/12 09:05:11;;;;;;;;;;;;;;;22.94;43.47;95545.72;4828995;29;20083;-72
2022/05/12 09:07:59;;;;;;;3.58;2.85;;;;;;;23.11;40.01;95555.03;4826971;29;21186;-71
2022/05/12 09:10:31;;;;;;;3.78;2.50;;;;;;;22.95;41.48;95547.28;4843192;29;20054;-73
2022/05/12 09:13:02;;;;;;;3.72;2.80;;;;;;;23.01;40.84;95553.31;4826152;29;20077;-72
2022/05/12 09:15:38;;;;;;;3.72;2.75;;;;;;;22.81;38.66;95546.47;4828041;29;20118;-72
2022/05/12 09:18:17;;;;;;;3.20;2.60;;;;;;;23.18;38.17;95550.13;4829319;29;20057;-73
2022/05/12 09:20:45;;;;;;;5.28;3.53;;;;;;;23.44;38.31;95543.25;4829743;29;20493;-73
2022/05/12 09:23:12;;;;;;;4.13;2.95;;;;;;;23.61;37.76;95552.50;4824234;29;20126;-73
2022/05/12 09:25:48;;;;;;;7.47;4.13;;;;;;;23.75;36.13;95547.97;4826758;29;20110;-73
2022/05/12 09:28:36;;;;;;;3.70;2.85;;;;;;;23.84;37.19;95548.88;4825090;29;20065;-72
2022/05/12 09:31:08;;;;;;;3.80;3.00;;;;;;;23.83;36.74;95549.94;4828078;29;20651;-71
2022/05/12 09:33:47;;;;;;;4.35;3.15;;;;;;;23.85;37.21;95555.75;4824641;29;20129;-69
2022/05/12 09:36:16;;;;;;;5.43;3.28;;;;;;;24.24;36.17;95549.06;4830639;29;20464;-69
2022/05/12 09:38:45;;;;;;;3.03;2.60;;;;;;;24.36;35.12;95556.56;4827298;29;20042;-69
2022/05/12 09:41:21;;;;;;;3.60;3.00;;;;;;;24.39;35.54;95555.16;4825920;29;20935;-68
2022/05/12 09:43:53;;;;;;;6.03;3.95;;;;;;;24.49;36.50;95554.91;4827820;29;20054;-68
2022/05/12 09:46:29;;;;;;;3.65;3.00;;;;;;;24.56;35.25;95555.31;4825875;29;20047;-68
2022/05/12 09:49:19;;;;;;;3.88;3.00;;;;;;;24.46;34.81;95547.53;4828503;29;20128;-69
2022/05/12 09:51:46;;;;;;;3.60;3.20;;;;;;;24.10;36.29;95539.56;4825400;29;20045;-69
2022/05/12 09:54:15;;;;;;;4.25;3.15;;;;;;;24.14;36.01;95532.56;4829087;29;20082;-68
2022/05/12 09:56:46;;;;;;;5.63;2.92;;;;;;;24.44;35.02;95541.72;4828164;29;20536;-68
2022/05/12 09:59:12;;;;;;;4.82;2.90;;;;;;;24.48;35.36;95537.34;4829171;29;20153;-69
2022/05/12 10:08:28;;;;;;;3.58;3.03;;;;;;;24.45;33.24;95527.31;4827250;29;20606;-68
2022/05/12 10:11:00;;;;;;;3.55;2.63;;;;;;;24.60;34.21;95529.66;4854699;29;20057;-69
2022/05/12 10:13:46;;;;;;;3.72;2.67;;;;;;;24.40;32.91;95524.78;4826685;29;20118;-68
2022/05/12 10:16:16;;;;;;;4.95;2.50;;;;;;;24.49;32.24;95522.97;4823949;29;21432;-68
2022/05/12 10:18:47;;;;;;;6.00;3.38;;;;;;;24.76;32.33;95515.97;4823293;29;20124;-69
2022/05/12 10:21:23;;;;;;;4.78;2.58;;;;;;;25.00;32.23;95513.72;4825509;29;20058;-68
2022/05/12 10:24:07;;;;;;;3.42;2.70;;;;;;;25.18;32.00;95511.94;4827620;29;20056;-68
2022/05/12 10:26:42;;;;;;;4.25;2.70;;;;;;;25.49;30.15;95510.34;4827924;29;20054;-68
2022/05/12 10:29:41;;;;;;;12.02;3.08;;;;;;;25.44;30.69;95500.59;4855160;29;20202;-69
2022/05/12 10:32:32;;;;;;;3.08;2.40;;;;;;;25.68;31.02;95502.88;4822870;29;20152;-69
2022/05/12 10:35:12;;;;;;;4.85;2.80;;;;;;;26.15;29.88;95498.88;4827380;29;20046;-68
2022/05/12 10:37:48;;;;;;;6.97;2.65;;;;;;;25.80;30.08;95493.47;4831405;29;20061;-68
2022/05/12 10:40:26;;;;;;;3.20;2.38;;;;;;;26.11;29.28;95494.16;4831340;29;20733;-67
2022/05/12 10:43:14;;;;;;;4.75;2.42;;;;;;;26.32;28.95;95490.84;4828076;29;20042;-67
2022/05/12 10:45:56;;;;;;;2.85;1.90;;;;;;;26.52;28.19;95498.22;4830696;29;20448;-67
2022/05/12 10:48:42;;;;;;;3.78;2.83;;;;;;;26.58;28.76;95490.03;4828576;29;20447;-74
2022/05/12 10:51:26;;;;;;;3.53;2.45;;;;;;;26.63;26.83;95493.38;4832362;29;20042;-73
2022/05/12 10:54:16;;;;;;;2.58;2.00;;;;;;;26.62;26.81;95485.66;4832233;29;20065;-74
2022/05/12 10:57:15;;;;;;;2.53;2.03;;;;;;;26.68;25.39;95481.72;4832537;29;20443;-67
2022/05/12 11:00:14;;;;;;;4.38;2.17;;;;;;;27.42;26.68;95485.09;4830734;29;20062;-68
2022/05/12 11:02:44;;;;;;;3.50;2.10;;;;;;;27.98;25.28;95477.69;4833757;29;20073;-68
2022/05/12 11:05:30;;;;;;;3.53;2.65;;;;;;;27.97;24.09;95484.16;4831921;29;20065;-68
2022/05/12 11:08:16;;;;;;;3.13;2.05;;;;;;;28.01;23.31;95479.69;4831712;29;20046;-68
2022/05/12 11:10:49;;;;;;;4.53;2.47;;;;;;;28.31;25.79;95466.22;4831063;29;21000;-68
2022/05/12 11:13:38;;;;;;;3.85;1.95;;;;;;;28.12;24.38;95469.38;4830346;29;20875;-67
2022/05/12 11:16:13;;;;;;;3.67;2.03;;;;;;;27.67;24.24;95469.22;4828307;29;20057;-67
2022/05/12 11:19:13;;;;;;;2.42;2.00;;;;;;;27.83;22.59;95470.19;4827866;29;20050;-75
2022/05/12 11:21:51;;;;;;;2.20;1.73;;;;;;;28.28;23.48;95466.88;4828323;29;20050;-67
2022/05/12 11:24:30;;;;;;;2.90;2.45;;;;;;;28.64;22.04;95462.00;4830392;29;20046;-67
2022/05/12 11:27:05;;;;;;;2.55;1.88;;;;;;;29.22;21.93;95460.09;4830464;29;20086;-67
2022/05/12 11:29:56;;;;;;;2.80;2.30;;;;;;;29.23;22.38;95455.53;4830982;29;20050;-67
2022/05/12 11:32:29;;;;;;;1.83;1.63;;;;;;;28.84;20.70;95455.78;4826857;29;20058;-66
2022/05/12 11:35:03;;;;;;;2.58;1.50;;;;;;;28.80;19.82;95454.91;4832609;29;20054;-67
2022/05/12 11:37:43;;;;;;;2.10;1.60;;;;;;;29.03;18.30;95446.41;4830354;29;20941;-67
2022/05/12 11:40:11;;;;;;;2.00;1.27;;;;;;;29.25;18.69;95447.94;4829616;29;20045;-67
2022/05/12 11:45:48;;;;;;;2.28;1.67;;;;;;;29.93;20.54;95440.00;4830434;29;20073;-68
2022/05/12 11:48:38;;;;;;;2.60;1.92;;;;;;;29.68;20.54;95433.13;4827718;29;20145;-67
2022/05/12 11:51:23;;;;;;;2.58;1.95;;;;;;;29.79;19.64;95428.88;4826089;29;20061;-67
2022/05/12 11:54:19;;;;;;;2.55;1.70;;;;;;;30.48;18.09;95410.03;4824401;29;20516;-68
2022/05/12 11:56:49;;;;;;;2.40;1.40;;;;;;;30.97;18.35;95417.81;4829292;29;20053;-68
2022/05/12 11:59:33;;;;;;;2.08;1.85;;;;;;;30.42;19.03;95422.94;4825476;29;20050;-68
2022/05/12 12:02:29;;;;;;;1.73;1.30;;;;;;;30.22;17.12;95419.31;4827113;29;20048;-69
2022/05/12 12:05:11;;;;;;;2.10;1.33;;;;;;;30.77;16.29;95413.44;4817569;29;20054;-69
2022/05/12 12:07:38;;;;;;;2.03;1.52;;;;;;;30.97;16.68;95419.72;4826054;29;20049;-69
2022/05/12 12:10:30;;;;;;;1.92;1.30;;;;;;;30.30;16.10;95415.69;4823387;29;20042;-68
2022/05/12 12:13:17;;;;;;;2.03;1.23;;;;;;;30.73;16.62;95416.03;4829170;29;20091;-69